sensor_id;sensor_type;location;lat;lon;timestamp;temperature;humidity
52799;DHT22;38667;42.872;74.622;2023-11-19T00:01:27;9.90;99.90
52799;DHT22;38667;42.872;74.622;2023-11-19T00:03:53;9.90;99.90
52799;DHT22;38667;42.872;74.622;2023-11-19T00:06:19;9.80;99.90
52799;DHT22;38667;42.872;74.622;2023-11-19T00:08:46;9.80;99.90
52799;DHT22;38667;42.872;74.622;2023-11-19T00:11:12;9.80;99.90
52799;DHT22;38667;42.872;74.622;2023-11-19T00:13:38;9.80;99.90
52799;DHT22;38667;42.872;74.622;2023-11-19T00:16:06;9.90;99.90
52799;DHT22;38667;42.872;74.622;2023-11-19T00:18:34;9.90;99.90
52799;DHT22;38667;42.872;74.622;2023-11-19T00:21:00;9.90;99.90
52799;DHT22;38667;42.872;74.622;2023-11-19T00:23:26;9.90;99.90
52799;DHT22;38667;42.872;74.622;2023-11-19T00:25:53;9.90;99.90
52799;DHT22;38667;42.872;74.622;2023-11-19T00:28:19;9.80;99.90
52799;DHT22;38667;42.872;74.622;2023-11-19T00:30:45;9.80;99.90
52799;DHT22;38667;42.872;74.622;2023-11-19T00:33:12;9.90;99.90
52799;DHT22;38667;42.872;74.622;2023-11-19T00:35:39;10.00;99.90
52799;DHT22;38667;42.872;74.622;2023-11-19T00:38:06;10.00;99.90
52799;DHT22;38667;42.872;74.622;2023-11-19T00:40:32;9.90;99.90
52799;DHT22;38667;42.872;74.622;2023-11-19T00:42:58;9.80;99.90
52799;DHT22;38667;42.872;74.622;2023-11-19T00:45:24;9.70;99.90
52799;DHT22;38667;42.872;74.622;2023-11-19T00:47:51;9.80;99.90
52799;DHT22;38667;42.872;74.622;2023-11-19T00:50:17;9.80;99.90
52799;DHT22;38667;42.872;74.622;2023-11-19T00:52:45;9.80;99.90
52799;DHT22;38667;42.872;74.622;2023-11-19T00:55:11;9.80;99.90
52799;DHT22;38667;42.872;74.622;2023-11-19T00:57:37;9.60;99.90
52799;DHT22;38667;42.872;74.622;2023-11-19T01:00:05;9.60;99.90
52799;DHT22;38667;42.872;74.622;2023-11-19T01:02:32;9.60;99.90
52799;DHT22;38667;42.872;74.622;2023-11-19T01:04:58;9.50;99.90
52799;DHT22;38667;42.872;74.622;2023-11-19T01:07:24;9.50;99.90
52799;DHT22;38667;42.872;74.622;2023-11-19T01:09:52;9.40;99.90
52799;DHT22;38667;42.872;74.622;2023-11-19T01:12:18;9.30;99.90
52799;DHT22;38667;42.872;74.622;2023-11-19T01:14:45;9.20;97.10
52799;DHT22;38667;42.872;74.622;2023-11-19T01:17:11;9.20;96.70
52799;DHT22;38667;42.872;74.622;2023-11-19T01:19:37;9.10;96.30
52799;DHT22;38667;42.872;74.622;2023-11-19T01:22:04;9.10;94.80
52799;DHT22;38667;42.872;74.622;2023-11-19T01:24:30;9.10;94.20
52799;DHT22;38667;42.872;74.622;2023-11-19T01:26:58;9.10;94.50
52799;DHT22;38667;42.872;74.622;2023-11-19T01:29:24;9.10;95.70
52799;DHT22;38667;42.872;74.622;2023-11-19T01:31:50;9.00;95.30
52799;DHT22;38667;42.872;74.622;2023-11-19T01:34:17;8.90;95.20
52799;DHT22;38667;42.872;74.622;2023-11-19T01:36:43;8.90;95.20
52799;DHT22;38667;42.872;74.622;2023-11-19T01:39:09;8.80;96.00
52799;DHT22;38667;42.872;74.622;2023-11-19T01:41:36;8.80;97.50
52799;DHT22;38667;42.872;74.622;2023-11-19T01:44:06;8.90;98.90
52799;DHT22;38667;42.872;74.622;2023-11-19T01:46:32;8.90;97.10
52799;DHT22;38667;42.872;74.622;2023-11-19T01:49:00;8.90;96.20
52799;DHT22;38667;42.872;74.622;2023-11-19T01:51:27;8.80;96.60
52799;DHT22;38667;42.872;74.622;2023-11-19T01:53:53;8.80;96.30
52799;DHT22;38667;42.872;74.622;2023-11-19T01:56:21;8.80;97.70
52799;DHT22;38667;42.872;74.622;2023-11-19T01:58:49;8.90;98.10
52799;DHT22;38667;42.872;74.622;2023-11-19T02:01:17;8.90;98.70
52799;DHT22;38667;42.872;74.622;2023-11-19T02:03:43;9.00;98.60
52799;DHT22;38667;42.872;74.622;2023-11-19T02:06:10;9.10;98.40
52799;DHT22;38667;42.872;74.622;2023-11-19T02:08:36;9.20;96.50
52799;DHT22;38667;42.872;74.622;2023-11-19T02:11:02;9.10;95.40
52799;DHT22;38667;42.872;74.622;2023-11-19T02:13:29;9.00;92.90
52799;DHT22;38667;42.872;74.622;2023-11-19T02:15:55;9.00;91.70
52799;DHT22;38667;42.872;74.622;2023-11-19T02:18:24;8.90;92.10
52799;DHT22;38667;42.872;74.622;2023-11-19T02:20:51;9.00;93.60
52799;DHT22;38667;42.872;74.622;2023-11-19T02:23:18;9.00;93.50
52799;DHT22;38667;42.872;74.622;2023-11-19T02:25:52;9.00;92.50
52799;DHT22;38667;42.872;74.622;2023-11-19T02:28:21;8.90;90.80
52799;DHT22;38667;42.872;74.622;2023-11-19T02:30:48;8.90;88.90
52799;DHT22;38667;42.872;74.622;2023-11-19T02:33:14;8.90;88.80
52799;DHT22;38667;42.872;74.622;2023-11-19T02:35:40;9.00;89.50
52799;DHT22;38667;42.872;74.622;2023-11-19T02:38:07;9.00;89.70
52799;DHT22;38667;42.872;74.622;2023-11-19T02:40:33;9.00;90.10
52799;DHT22;38667;42.872;74.622;2023-11-19T02:42:59;9.00;90.10
52799;DHT22;38667;42.872;74.622;2023-11-19T02:45:27;9.00;89.90
52799;DHT22;38667;42.872;74.622;2023-11-19T02:47:54;9.10;89.40
52799;DHT22;38667;42.872;74.622;2023-11-19T02:50:20;9.10;88.30
52799;DHT22;38667;42.872;74.622;2023-11-19T02:52:46;9.10;88.30
52799;DHT22;38667;42.872;74.622;2023-11-19T02:55:13;9.10;87.80
52799;DHT22;38667;42.872;74.622;2023-11-19T02:57:39;9.00;87.60
52799;DHT22;38667;42.872;74.622;2023-11-19T03:00:07;9.00;88.90
52799;DHT22;38667;42.872;74.622;2023-11-19T03:02:34;9.00;88.60
52799;DHT22;38667;42.872;74.622;2023-11-19T03:05:01;9.00;88.10
52799;DHT22;38667;42.872;74.622;2023-11-19T03:07:27;9.00;87.80
52799;DHT22;38667;42.872;74.622;2023-11-19T03:09:53;9.00;89.30
52799;DHT22;38667;42.872;74.622;2023-11-19T03:12:20;9.00;90.10
52799;DHT22;38667;42.872;74.622;2023-11-19T03:14:46;9.00;90.80
52799;DHT22;38667;42.872;74.622;2023-11-19T03:17:12;9.00;90.30
52799;DHT22;38667;42.872;74.622;2023-11-19T03:19:40;8.90;89.00
52799;DHT22;38667;42.872;74.622;2023-11-19T03:22:06;8.90;89.80
52799;DHT22;38667;42.872;74.622;2023-11-19T03:24:33;8.90;90.70
52799;DHT22;38667;42.872;74.622;2023-11-19T03:26:59;8.80;90.80
52799;DHT22;38667;42.872;74.622;2023-11-19T03:29:25;8.80;91.50
52799;DHT22;38667;42.872;74.622;2023-11-19T03:31:51;8.80;92.70
52799;DHT22;38667;42.872;74.622;2023-11-19T03:34:18;8.90;93.10
52799;DHT22;38667;42.872;74.622;2023-11-19T03:36:45;9.00;92.70
52799;DHT22;38667;42.872;74.622;2023-11-19T03:39:12;9.10;92.80
52799;DHT22;38667;42.872;74.622;2023-11-19T03:41:38;9.10;91.50
52799;DHT22;38667;42.872;74.622;2023-11-19T03:44:05;9.00;92.10
52799;DHT22;38667;42.872;74.622;2023-11-19T03:46:31;9.00;91.80
52799;DHT22;38667;42.872;74.622;2023-11-19T03:48:57;9.00;91.80
52799;DHT22;38667;42.872;74.622;2023-11-19T03:51:23;8.90;92.20
52799;DHT22;38667;42.872;74.622;2023-11-19T03:53:51;9.00;93.70
52799;DHT22;38667;42.872;74.622;2023-11-19T03:56:18;9.00;93.30
52799;DHT22;38667;42.872;74.622;2023-11-19T03:58:44;8.90;92.10
52799;DHT22;38667;42.872;74.622;2023-11-19T04:01:12;8.90;91.60
52799;DHT22;38667;42.872;74.622;2023-11-19T04:03:38;8.90;92.00
52799;DHT22;38667;42.872;74.622;2023-11-19T04:06:05;8.90;92.30
52799;DHT22;38667;42.872;74.622;2023-11-19T04:08:31;8.90;94.00
52799;DHT22;38667;42.872;74.622;2023-11-19T04:11:00;8.90;93.80
52799;DHT22;38667;42.872;74.622;2023-11-19T04:13:26;8.80;93.60
52799;DHT22;38667;42.872;74.622;2023-11-19T04:15:53;8.80;94.20
52799;DHT22;38667;42.872;74.622;2023-11-19T04:18:19;8.70;94.30
52799;DHT22;38667;42.872;74.622;2023-11-19T04:20:45;8.70;93.50
52799;DHT22;38667;42.872;74.622;2023-11-19T04:23:11;8.70;93.80
52799;DHT22;38667;42.872;74.622;2023-11-19T04:25:38;8.70;94.20
52799;DHT22;38667;42.872;74.622;2023-11-19T04:28:05;8.70;95.90
52799;DHT22;38667;42.872;74.622;2023-11-19T04:30:32;8.70;96.30
52799;DHT22;38667;42.872;74.622;2023-11-19T04:32:58;8.80;97.30
52799;DHT22;38667;42.872;74.622;2023-11-19T04:35:24;8.80;94.00
52799;DHT22;38667;42.872;74.622;2023-11-19T04:37:51;8.80;94.70
52799;DHT22;38667;42.872;74.622;2023-11-19T04:40:17;8.90;96.20
52799;DHT22;38667;42.872;74.622;2023-11-19T04:42:43;8.90;97.20
52799;DHT22;38667;42.872;74.622;2023-11-19T04:45:12;9.00;97.20
52799;DHT22;38667;42.872;74.622;2023-11-19T04:47:45;9.00;96.60
52799;DHT22;38667;42.872;74.622;2023-11-19T04:50:12;9.00;95.70
52799;DHT22;38667;42.872;74.622;2023-11-19T04:52:38;8.90;95.00
52799;DHT22;38667;42.872;74.622;2023-11-19T04:55:05;8.90;94.60
52799;DHT22;38667;42.872;74.622;2023-11-19T04:57:31;8.90;95.00
52799;DHT22;38667;42.872;74.622;2023-11-19T04:59:57;8.80;95.50
52799;DHT22;38667;42.872;74.622;2023-11-19T05:02:25;8.80;95.80
52799;DHT22;38667;42.872;74.622;2023-11-19T05:04:52;8.80;96.30
52799;DHT22;38667;42.872;74.622;2023-11-19T05:07:18;8.80;96.40
52799;DHT22;38667;42.872;74.622;2023-11-19T05:09:44;8.80;96.60
52799;DHT22;38667;42.872;74.622;2023-11-19T05:12:10;8.90;97.00
52799;DHT22;38667;42.872;74.622;2023-11-19T05:14:37;8.90;97.50
52799;DHT22;38667;42.872;74.622;2023-11-19T05:17:03;8.90;98.10
52799;DHT22;38667;42.872;74.622;2023-11-19T05:19:32;8.90;98.20
52799;DHT22;38667;42.872;74.622;2023-11-19T05:21:58;8.90;97.10
52799;DHT22;38667;42.872;74.622;2023-11-19T05:24:24;8.90;98.30
52799;DHT22;38667;42.872;74.622;2023-11-19T05:26:52;9.00;98.60
52799;DHT22;38667;42.872;74.622;2023-11-19T05:29:18;9.10;99.40
52799;DHT22;38667;42.872;74.622;2023-11-19T05:31:44;9.10;99.50
52799;DHT22;38667;42.872;74.622;2023-11-19T05:34:11;9.00;99.30
52799;DHT22;38667;42.872;74.622;2023-11-19T05:36:38;9.10;99.90
52799;DHT22;38667;42.872;74.622;2023-11-19T05:39:05;9.10;99.80
52799;DHT22;38667;42.872;74.622;2023-11-19T05:41:31;9.10;99.60
52799;DHT22;38667;42.872;74.622;2023-11-19T05:43:57;9.00;99.30
52799;DHT22;38667;42.872;74.622;2023-11-19T05:46:24;8.90;98.60
52799;DHT22;38667;42.872;74.622;2023-11-19T05:48:50;9.00;99.60
52799;DHT22;38667;42.872;74.622;2023-11-19T05:51:16;9.00;99.30
52799;DHT22;38667;42.872;74.622;2023-11-19T05:53:45;9.00;99.10
52799;DHT22;38667;42.872;74.622;2023-11-19T05:56:11;9.00;99.80
52799;DHT22;38667;42.872;74.622;2023-11-19T05:58:37;9.00;99.70
52799;DHT22;38667;42.872;74.622;2023-11-19T06:01:05;9.00;99.40
52799;DHT22;38667;42.872;74.622;2023-11-19T06:03:31;9.00;99.70
52799;DHT22;38667;42.872;74.622;2023-11-19T06:05:58;9.00;99.80
52799;DHT22;38667;42.872;74.622;2023-11-19T06:08:24;9.20;99.80
52799;DHT22;38667;42.872;74.622;2023-11-19T06:10:52;9.20;99.10
52799;DHT22;38667;42.872;74.622;2023-11-19T06:13:18;9.20;99.50
52799;DHT22;38667;42.872;74.622;2023-11-19T06:15:44;9.20;99.90
52799;DHT22;38667;42.872;74.622;2023-11-19T06:18:11;9.20;99.20
52799;DHT22;38667;42.872;74.622;2023-11-19T06:20:37;9.20;97.70
52799;DHT22;38667;42.872;74.622;2023-11-19T06:23:03;9.30;97.60
52799;DHT22;38667;42.872;74.622;2023-11-19T06:25:30;9.20;97.10
52799;DHT22;38667;42.872;74.622;2023-11-19T06:27:58;9.20;96.00
52799;DHT22;38667;42.872;74.622;2023-11-19T06:30:24;9.20;96.20
52799;DHT22;38667;42.872;74.622;2023-11-19T06:32:51;9.40;97.80
52799;DHT22;38667;42.872;74.622;2023-11-19T06:35:17;9.40;97.50
52799;DHT22;38667;42.872;74.622;2023-11-19T06:37:43;9.40;95.70
52799;DHT22;38667;42.872;74.622;2023-11-19T06:40:10;9.40;95.40
52799;DHT22;38667;42.872;74.622;2023-11-19T06:42:37;9.50;95.80
52799;DHT22;38667;42.872;74.622;2023-11-19T06:45:05;9.40;96.60
52799;DHT22;38667;42.872;74.622;2023-11-19T06:47:32;9.50;96.90
52799;DHT22;38667;42.872;74.622;2023-11-19T06:49:58;9.50;97.60
52799;DHT22;38667;42.872;74.622;2023-11-19T06:52:25;9.60;96.50
52799;DHT22;38667;42.872;74.622;2023-11-19T06:54:51;9.60;96.20
52799;DHT22;38667;42.872;74.622;2023-11-19T06:57:17;9.70;95.60
52799;DHT22;38667;42.872;74.622;2023-11-19T06:59:43;9.80;96.40
52799;DHT22;38667;42.872;74.622;2023-11-19T07:02:11;9.80;95.70
52799;DHT22;38667;42.872;74.622;2023-11-19T07:04:38;9.80;94.50
52799;DHT22;38667;42.872;74.622;2023-11-19T07:07:04;9.80;93.40
52799;DHT22;38667;42.872;74.622;2023-11-19T07:09:30;9.90;94.30
52799;DHT22;38667;42.872;74.622;2023-11-19T07:11:57;9.80;94.30
52799;DHT22;38667;42.872;74.622;2023-11-19T07:14:23;9.90;94.70
52799;DHT22;38667;42.872;74.622;2023-11-19T07:16:49;9.90;95.20
52799;DHT22;38667;42.872;74.622;2023-11-19T07:19:17;10.00;95.30
52799;DHT22;38667;42.872;74.622;2023-11-19T07:21:44;10.00;94.90
52799;DHT22;38667;42.872;74.622;2023-11-19T07:24:10;10.00;95.20
52799;DHT22;38667;42.872;74.622;2023-11-19T07:26:39;10.00;95.50
52799;DHT22;38667;42.872;74.622;2023-11-19T07:29:06;10.00;94.80
52799;DHT22;38667;42.872;74.622;2023-11-19T07:31:32;10.00;94.80
52799;DHT22;38667;42.872;74.622;2023-11-19T07:33:58;9.90;94.30
52799;DHT22;38667;42.872;74.622;2023-11-19T07:36:26;9.90;94.50
52799;DHT22;38667;42.872;74.622;2023-11-19T07:38:53;10.00;95.50
52799;DHT22;38667;42.872;74.622;2023-11-19T07:41:19;10.00;95.50
52799;DHT22;38667;42.872;74.622;2023-11-19T07:43:45;9.90;95.40
52799;DHT22;38667;42.872;74.622;2023-11-19T07:46:12;10.00;95.50
52799;DHT22;38667;42.872;74.622;2023-11-19T07:48:38;10.00;94.20
52799;DHT22;38667;42.872;74.622;2023-11-19T07:51:05;9.90;94.30
52799;DHT22;38667;42.872;74.622;2023-11-19T07:53:33;10.00;94.50
52799;DHT22;38667;42.872;74.622;2023-11-19T07:55:59;10.00;95.00
52799;DHT22;38667;42.872;74.622;2023-11-19T07:58:26;10.00;94.00
52799;DHT22;38667;42.872;74.622;2023-11-19T08:00:52;10.00;93.60
52799;DHT22;38667;42.872;74.622;2023-11-19T08:03:18;9.90;94.10
52799;DHT22;38667;42.872;74.622;2023-11-19T08:05:45;9.90;94.60
52799;DHT22;38667;42.872;74.622;2023-11-19T08:08:11;10.00;94.90
52799;DHT22;38667;42.872;74.622;2023-11-19T08:10:39;9.90;94.80
52799;DHT22;38667;42.872;74.622;2023-11-19T08:13:06;10.00;94.80
52799;DHT22;38667;42.872;74.622;2023-11-19T08:15:32;9.90;95.40
52799;DHT22;38667;42.872;74.622;2023-11-19T08:17:58;9.80;94.70
52799;DHT22;38667;42.872;74.622;2023-11-19T08:20:25;9.80;94.60
52799;DHT22;38667;42.872;74.622;2023-11-19T08:22:51;9.70;93.50
52799;DHT22;38667;42.872;74.622;2023-11-19T08:25:17;9.70;94.90
52799;DHT22;38667;42.872;74.622;2023-11-19T08:27:45;9.60;94.60
52799;DHT22;38667;42.872;74.622;2023-11-19T08:30:12;9.50;94.60
52799;DHT22;38667;42.872;74.622;2023-11-19T08:32:39;9.60;95.70
52799;DHT22;38667;42.872;74.622;2023-11-19T08:35:05;9.50;94.50
52799;DHT22;38667;42.872;74.622;2023-11-19T08:37:32;9.60;95.50
52799;DHT22;38667;42.872;74.622;2023-11-19T08:39:58;9.50;95.00
52799;DHT22;38667;42.872;74.622;2023-11-19T08:42:24;9.50;96.00
52799;DHT22;38667;42.872;74.622;2023-11-19T08:44:52;9.50;95.60
52799;DHT22;38667;42.872;74.622;2023-11-19T08:47:19;9.50;96.20
52799;DHT22;38667;42.872;74.622;2023-11-19T08:49:45;9.60;96.70
52799;DHT22;38667;42.872;74.622;2023-11-19T08:52:11;9.70;96.60
52799;DHT22;38667;42.872;74.622;2023-11-19T08:54:38;9.80;96.50
52799;DHT22;38667;42.872;74.622;2023-11-19T08:57:08;9.70;96.50
52799;DHT22;38667;42.872;74.622;2023-11-19T08:59:34;9.70;96.60
52799;DHT22;38667;42.872;74.622;2023-11-19T09:02:02;9.80;96.80
52799;DHT22;38667;42.872;74.622;2023-11-19T09:04:28;9.80;95.80
52799;DHT22;38667;42.872;74.622;2023-11-19T09:06:54;9.80;96.00
52799;DHT22;38667;42.872;74.622;2023-11-19T09:09:21;9.80;96.10
52799;DHT22;38667;42.872;74.622;2023-11-19T09:11:47;9.80;95.90
52799;DHT22;38667;42.872;74.622;2023-11-19T09:14:13;9.70;96.20
52799;DHT22;38667;42.872;74.622;2023-11-19T09:16:40;9.70;96.40
52799;DHT22;38667;42.872;74.622;2023-11-19T09:19:07;9.70;97.60
52799;DHT22;38667;42.872;74.622;2023-11-19T09:21:34;9.80;97.30
52799;DHT22;38667;42.872;74.622;2023-11-19T09:24:00;9.80;97.00
52799;DHT22;38667;42.872;74.622;2023-11-19T09:26:26;9.90;96.40
52799;DHT22;38667;42.872;74.622;2023-11-19T09:28:53;9.90;96.70
52799;DHT22;38667;42.872;74.622;2023-11-19T09:31:19;9.90;96.10
52799;DHT22;38667;42.872;74.622;2023-11-19T09:33:45;9.90;96.40
52799;DHT22;38667;42.872;74.622;2023-11-19T09:36:14;9.90;95.50
52799;DHT22;38667;42.872;74.622;2023-11-19T09:38:40;10.00;95.80
52799;DHT22;38667;42.872;74.622;2023-11-19T09:41:06;9.90;96.00
52799;DHT22;38667;42.872;74.622;2023-11-19T09:43:33;10.00;95.50
52799;DHT22;38667;42.872;74.622;2023-11-19T09:46:03;10.00;95.00
52799;DHT22;38667;42.872;74.622;2023-11-19T09:48:32;9.90;94.80
52799;DHT22;38667;42.872;74.622;2023-11-19T09:50:59;9.90;95.10
52799;DHT22;38667;42.872;74.622;2023-11-19T09:53:28;9.90;95.30
52799;DHT22;38667;42.872;74.622;2023-11-19T09:55:55;9.90;95.60
52799;DHT22;38667;42.872;74.622;2023-11-19T09:58:22;9.90;96.20
52799;DHT22;38667;42.872;74.622;2023-11-19T10:00:50;9.80;95.90
52799;DHT22;38667;42.872;74.622;2023-11-19T10:03:16;9.80;96.20
52799;DHT22;38667;42.872;74.622;2023-11-19T10:05:43;9.80;96.40
52799;DHT22;38667;42.872;74.622;2023-11-19T10:08:09;9.80;96.60
52799;DHT22;38667;42.872;74.622;2023-11-19T10:10:37;9.80;97.10
52799;DHT22;38667;42.872;74.622;2023-11-19T10:13:04;9.80;97.10
52799;DHT22;38667;42.872;74.622;2023-11-19T10:15:33;9.80;97.30
52799;DHT22;38667;42.872;74.622;2023-11-19T10:18:01;9.70;97.70
52799;DHT22;38667;42.872;74.622;2023-11-19T10:20:27;9.80;97.30
52799;DHT22;38667;42.872;74.622;2023-11-19T10:22:54;9.70;97.00
52799;DHT22;38667;42.872;74.622;2023-11-19T10:25:23;9.80;97.30
52799;DHT22;38667;42.872;74.622;2023-11-19T10:27:51;9.70;96.90
52799;DHT22;38667;42.872;74.622;2023-11-19T10:30:21;9.70;97.00
52799;DHT22;38667;42.872;74.622;2023-11-19T10:33:05;9.70;96.90
52799;DHT22;38667;42.872;74.622;2023-11-19T10:35:32;9.70;96.40
52799;DHT22;38667;42.872;74.622;2023-11-19T10:38:00;9.70;96.00
52799;DHT22;38667;42.872;74.622;2023-11-19T10:40:38;9.60;96.40
52799;DHT22;38667;42.872;74.622;2023-11-19T10:43:06;9.60;96.70
52799;DHT22;38667;42.872;74.622;2023-11-19T10:45:32;9.50;97.10
52799;DHT22;38667;42.872;74.622;2023-11-19T10:47:59;9.60;97.60
52799;DHT22;38667;42.872;74.622;2023-11-19T10:50:25;9.60;96.80
52799;DHT22;38667;42.872;74.622;2023-11-19T10:52:55;9.60;96.70
52799;DHT22;38667;42.872;74.622;2023-11-19T10:55:26;9.70;97.40
52799;DHT22;38667;42.872;74.622;2023-11-19T10:57:53;9.70;96.40
52799;DHT22;38667;42.872;74.622;2023-11-19T11:00:25;9.60;96.50
52799;DHT22;38667;42.872;74.622;2023-11-19T11:02:56;9.60;95.80
52799;DHT22;38667;42.872;74.622;2023-11-19T11:05:26;9.60;96.10
52799;DHT22;38667;42.872;74.622;2023-11-19T11:07:54;9.60;96.70
52799;DHT22;38667;42.872;74.622;2023-11-19T11:10:23;9.50;96.70
52799;DHT22;38667;42.872;74.622;2023-11-19T11:12:51;9.50;97.40
52799;DHT22;38667;42.872;74.622;2023-11-19T11:15:18;9.50;97.50
52799;DHT22;38667;42.872;74.622;2023-11-19T11:17:47;9.40;98.10
52799;DHT22;38667;42.872;74.622;2023-11-19T11:20:14;9.40;98.10
52799;DHT22;38667;42.872;74.622;2023-11-19T11:22:48;9.50;99.10
52799;DHT22;38667;42.872;74.622;2023-11-19T11:25:28;9.50;98.00
52799;DHT22;38667;42.872;74.622;2023-11-19T11:28:14;9.50;97.70
52799;DHT22;38667;42.872;74.622;2023-11-19T11:30:55;9.60;97.40
52799;DHT22;38667;42.872;74.622;2023-11-19T11:33:45;9.60;98.00
52799;DHT22;38667;42.872;74.622;2023-11-19T11:36:20;9.60;97.30
52799;DHT22;38667;42.872;74.622;2023-11-19T11:38:48;9.70;97.10
52799;DHT22;38667;42.872;74.622;2023-11-19T11:41:22;9.80;97.00
52799;DHT22;38667;42.872;74.622;2023-11-19T11:43:49;9.80;96.90
52799;DHT22;38667;42.872;74.622;2023-11-19T11:49:31;9.70;96.60
52799;DHT22;38667;42.872;74.622;2023-11-19T11:52:02;9.70;97.10
52799;DHT22;38667;42.872;74.622;2023-11-19T11:54:29;9.70;97.70
52799;DHT22;38667;42.872;74.622;2023-11-19T11:57:08;9.70;97.80
52799;DHT22;38667;42.872;74.622;2023-11-19T11:59:47;9.70;98.00
52799;DHT22;38667;42.872;74.622;2023-11-19T12:02:15;9.80;98.20
52799;DHT22;38667;42.872;74.622;2023-11-19T12:04:46;9.70;97.70
52799;DHT22;38667;42.872;74.622;2023-11-19T12:07:15;9.60;98.00
52799;DHT22;38667;42.872;74.622;2023-11-19T12:09:45;9.60;97.30
52799;DHT22;38667;42.872;74.622;2023-11-19T12:12:22;9.50;98.40
52799;DHT22;38667;42.872;74.622;2023-11-19T12:15:02;9.50;98.80
52799;DHT22;38667;42.872;74.622;2023-11-19T12:17:41;9.50;99.00
52799;DHT22;38667;42.872;74.622;2023-11-19T12:20:10;9.50;99.40
52799;DHT22;38667;42.872;74.622;2023-11-19T12:22:37;9.50;99.90
52799;DHT22;38667;42.872;74.622;2023-11-19T12:25:05;9.50;99.90
52799;DHT22;38667;42.872;74.622;2023-11-19T12:27:32;9.50;99.90
52799;DHT22;38667;42.872;74.622;2023-11-19T12:29:58;9.60;99.90
52799;DHT22;38667;42.872;74.622;2023-11-19T12:32:25;9.60;99.90
52799;DHT22;38667;42.872;74.622;2023-11-19T12:34:51;9.50;99.90
52799;DHT22;38667;42.872;74.622;2023-11-19T12:37:19;9.50;99.90
52799;DHT22;38667;42.872;74.622;2023-11-19T12:39:45;9.40;99.90
52799;DHT22;38667;42.872;74.622;2023-11-19T12:42:12;9.40;99.90
52799;DHT22;38667;42.872;74.622;2023-11-19T12:44:38;9.30;99.90
52799;DHT22;38667;42.872;74.622;2023-11-19T12:47:05;9.30;99.90
52799;DHT22;38667;42.872;74.622;2023-11-19T12:49:32;9.30;99.90
52799;DHT22;38667;42.872;74.622;2023-11-19T12:51:59;9.30;99.90
52799;DHT22;38667;42.872;74.622;2023-11-19T12:54:44;9.30;99.90
52799;DHT22;38667;42.872;74.622;2023-11-19T12:57:11;9.30;99.90
52799;DHT22;38667;42.872;74.622;2023-11-19T12:59:37;9.30;99.90
52799;DHT22;38667;42.872;74.622;2023-11-19T13:02:04;9.20;99.90
52799;DHT22;38667;42.872;74.622;2023-11-19T13:04:30;9.20;99.90
52799;DHT22;38667;42.872;74.622;2023-11-19T13:06:57;9.20;99.90
52799;DHT22;38667;42.872;74.622;2023-11-19T13:09:24;9.20;99.90
52799;DHT22;38667;42.872;74.622;2023-11-19T13:11:53;9.20;99.90
52799;DHT22;38667;42.872;74.622;2023-11-19T13:14:20;9.20;99.90
52799;DHT22;38667;42.872;74.622;2023-11-19T13:16:46;9.20;99.90
52799;DHT22;38667;42.872;74.622;2023-11-19T13:19:13;9.20;99.90
52799;DHT22;38667;42.872;74.622;2023-11-19T13:21:39;9.20;99.90
52799;DHT22;38667;42.872;74.622;2023-11-19T13:24:06;9.20;99.90
52799;DHT22;38667;42.872;74.622;2023-11-19T13:26:32;9.20;99.90
52799;DHT22;38667;42.872;74.622;2023-11-19T13:29:00;9.30;99.90
52799;DHT22;38667;42.872;74.622;2023-11-19T13:31:27;9.20;99.90
52799;DHT22;38667;42.872;74.622;2023-11-19T13:33:53;9.20;99.90
52799;DHT22;38667;42.872;74.622;2023-11-19T13:36:20;9.20;99.90
52799;DHT22;38667;42.872;74.622;2023-11-19T13:38:46;9.10;99.90
52799;DHT22;38667;42.872;74.622;2023-11-19T13:41:13;9.10;99.90
52799;DHT22;38667;42.872;74.622;2023-11-19T13:43:39;9.00;99.90
52799;DHT22;38667;42.872;74.622;2023-11-19T13:46:07;9.00;99.90
52799;DHT22;38667;42.872;74.622;2023-11-19T13:48:34;9.10;99.90
52799;DHT22;38667;42.872;74.622;2023-11-19T13:51:00;9.10;99.90
52799;DHT22;38667;42.872;74.622;2023-11-19T13:53:27;9.20;99.90
52799;DHT22;38667;42.872;74.622;2023-11-19T13:55:53;9.20;99.90
52799;DHT22;38667;42.872;74.622;2023-11-19T13:58:20;9.20;99.90
52799;DHT22;38667;42.872;74.622;2023-11-19T14:00:47;9.30;99.90
52799;DHT22;38667;42.872;74.622;2023-11-19T14:03:15;9.30;99.90
52799;DHT22;38667;42.872;74.622;2023-11-19T14:05:42;9.20;99.90
52799;DHT22;38667;42.872;74.622;2023-11-19T14:08:08;9.30;99.90
52799;DHT22;38667;42.872;74.622;2023-11-19T14:10:35;9.30;99.90
52799;DHT22;38667;42.872;74.622;2023-11-19T14:13:01;9.40;99.90
52799;DHT22;38667;42.872;74.622;2023-11-19T14:15:27;9.30;99.90
52799;DHT22;38667;42.872;74.622;2023-11-19T14:17:54;9.30;99.90
52799;DHT22;38667;42.872;74.622;2023-11-19T14:20:22;9.30;99.90
52799;DHT22;38667;42.872;74.622;2023-11-19T14:22:48;9.30;99.90
52799;DHT22;38667;42.872;74.622;2023-11-19T14:25:15;9.40;99.90
52799;DHT22;38667;42.872;74.622;2023-11-19T14:27:43;9.40;99.90
52799;DHT22;38667;42.872;74.622;2023-11-19T14:30:11;9.40;99.90
52799;DHT22;38667;42.872;74.622;2023-11-19T14:32:38;9.40;99.90
52799;DHT22;38667;42.872;74.622;2023-11-19T14:35:05;9.30;99.90
52799;DHT22;38667;42.872;74.622;2023-11-19T14:37:34;9.40;99.90
52799;DHT22;38667;42.872;74.622;2023-11-19T14:40:00;9.40;99.90
52799;DHT22;38667;42.872;74.622;2023-11-19T14:42:27;9.50;99.90
52799;DHT22;38667;42.872;74.622;2023-11-19T14:44:53;9.50;99.90
52799;DHT22;38667;42.872;74.622;2023-11-19T14:47:20;9.40;99.90
52799;DHT22;38667;42.872;74.622;2023-11-19T14:49:46;9.50;99.90
52799;DHT22;38667;42.872;74.622;2023-11-19T14:52:13;9.50;99.90
52799;DHT22;38667;42.872;74.622;2023-11-19T14:54:41;9.50;99.90
52799;DHT22;38667;42.872;74.622;2023-11-19T14:57:08;9.50;99.90
52799;DHT22;38667;42.872;74.622;2023-11-19T14:59:34;9.50;99.90
52799;DHT22;38667;42.872;74.622;2023-11-19T15:02:01;9.50;99.90
52799;DHT22;38667;42.872;74.622;2023-11-19T15:04:27;9.50;99.90
52799;DHT22;38667;42.872;74.622;2023-11-19T15:06:56;9.50;99.90
52799;DHT22;38667;42.872;74.622;2023-11-19T15:09:22;9.60;99.90
52799;DHT22;38667;42.872;74.622;2023-11-19T15:11:50;9.60;99.90
52799;DHT22;38667;42.872;74.622;2023-11-19T15:14:17;9.60;99.90
52799;DHT22;38667;42.872;74.622;2023-11-19T15:16:43;9.60;99.90
52799;DHT22;38667;42.872;74.622;2023-11-19T15:19:10;9.70;99.90
52799;DHT22;38667;42.872;74.622;2023-11-19T15:21:36;9.70;99.90
52799;DHT22;38667;42.872;74.622;2023-11-19T15:24:02;9.80;99.90
52799;DHT22;38667;42.872;74.622;2023-11-19T15:26:29;9.80;99.90
52799;DHT22;38667;42.872;74.622;2023-11-19T15:28:57;9.80;99.90
52799;DHT22;38667;42.872;74.622;2023-11-19T15:31:23;9.80;99.90
52799;DHT22;38667;42.872;74.622;2023-11-19T15:33:50;9.80;99.90